Back to Top

Language: 

My Weather Underground Personal Weather Station Historical Data with Graphs...

Delerius Weather Station Historical Data
Daily Summary for April 4, 2017 Units:  Metric    English   Both
« Previous Day
Next Day »
Daily Weekly Monthly Yearly Custom
  High: Low: Average:
Temperature: 15 °C 6.8 °C 10.8 °C
Dew Point: 10 °C 3.6 °C 7.3 °C
Humidity: 91 % 56 % 80 %
Wind Speed: 17.7 km/h 0 km/h 8 km/h
Wind Gust: 33.8 km/h - -
Wind:- - WNW
Pressure: 1030.4 hPa 1019.9 hPa -
Precipitation: 0 mm    
Historical Graphs
 
 
Tabular Data for April 4, 2017
Time Temperature Dew Point Pressure Wind Wind Speed Wind Gust Humidity Rainfall Rate (Hourly) solar Conditions
00:01 11.4 °C 7.5 °C 1020.5 hPa Calm   8 km/h 77 % 0 mm 0 W/m2
00:06 11.4 °C 7.5 °C 1020.5 hPa Calm   6.4 km/h 77 % 0 mm 0 W/m2
00:11 11.4 °C 7.5 °C 1020.5 hPa NW 1.6 km/h 9.7 km/h 77 % 0 mm 0 W/m2
00:16 11.4 °C 7.3 °C 1020.5 hPa West 3.2 km/h 12.9 km/h 76 % 0 mm 0 W/m2
00:21 11.5 °C 7.4 °C 1020.5 hPa SSW 4.8 km/h 16.1 km/h 76 % 0 mm 0 W/m2
00:26 11.5 °C 7.4 °C 1020.5 hPa SSE 1.6 km/h 16.1 km/h 76 % 0 mm 0 W/m2
00:31 11.5 °C 7.4 °C 1020.5 hPa SSW 1.6 km/h 12.9 km/h 76 % 0 mm 0 W/m2
00:36 11.5 °C 7.4 °C 1020.2 hPa SSW 8 km/h 17.7 km/h 76 % 0 mm 0 W/m2
00:42 11.5 °C 7.4 °C 1020.2 hPa SSW 12.9 km/h 22.5 km/h 76 % 0 mm 0 W/m2
00:47 11.4 °C 7.3 °C 1020.2 hPa SW 12.9 km/h 22.5 km/h 76 % 0 mm 0 W/m2
00:52 11.3 °C 7.4 °C 1020.2 hPa WSW 9.7 km/h 14.5 km/h 77 % 0 mm 0 W/m2
00:57 11.3 °C 7.4 °C 1019.9 hPa WSW 8 km/h 19.3 km/h 77 % 0 mm 0 W/m2
01:02 11.2 °C 7.3 °C 1019.9 hPa WSW 8 km/h 19.3 km/h 77 % 0 mm 0 W/m2
01:07 11.1 °C 7.2 °C 1019.9 hPa WSW 4.8 km/h 16.1 km/h 77 % 0 mm 0 W/m2
01:12 11.1 °C 7.4 °C 1020.2 hPa West 3.2 km/h 12.9 km/h 78 % 0 mm 0 W/m2
01:17 11 °C 7.3 °C 1019.9 hPa WSW 4.8 km/h 12.9 km/h 78 % 0 mm 0 W/m2
01:22 10.9 °C 7.2 °C 1019.9 hPa SW 8 km/h 12.9 km/h 78 % 0 mm 0 W/m2
01:27 10.8 °C 7.3 °C 1019.9 hPa SW 8 km/h 14.5 km/h 79 % 0 mm 0 W/m2
01:32 10.7 °C 7.2 °C 1019.9 hPa SSW 8 km/h 14.5 km/h 79 % 0 mm 0 W/m2
01:37 10.7 °C 7.2 °C 1019.9 hPa SW 6.4 km/h 12.9 km/h 79 % 0 mm 0 W/m2
01:42 10.6 °C 7.3 °C 1019.9 hPa SW 9.7 km/h 14.5 km/h 80 % 0 mm 0 W/m2
01:47 10.6 °C 7.3 °C 1019.9 hPa SW 11.3 km/h 19.3 km/h 80 % 0 mm 0 W/m2
01:52 10.5 °C 7.4 °C 1019.9 hPa SW 11.3 km/h 22.5 km/h 81 % 0 mm 0 W/m2
01:57 10.4 °C 7.3 °C 1019.9 hPa SW 11.3 km/h 22.5 km/h 81 % 0 mm 0 W/m2
02:02 10.4 °C 7.3 °C 1019.9 hPa SW 9.7 km/h 17.7 km/h 81 % 0 mm 0 W/m2
02:07 10.3 °C 7.2 °C 1019.9 hPa SW 6.4 km/h 17.7 km/h 81 % 0 mm 0 W/m2
02:12 10.3 °C 7.3 °C 1019.9 hPa SW 3.2 km/h 11.3 km/h 82 % 0 mm 0 W/m2
02:17 10.2 °C 7.3 °C 1019.9 hPa SW 1.6 km/h 6.4 km/h 82 % 0 mm 0 W/m2
02:22 10.1 °C 7.2 °C 1019.9 hPa SW 1.6 km/h 3.2 km/h 82 % 0 mm 0 W/m2
02:27 10 °C 7.2 °C 1019.9 hPa South 1.6 km/h 8 km/h 83 % 0 mm 0 W/m2
02:32 9.9 °C 7.2 °C 1019.9 hPa Calm   8 km/h 83 % 0 mm 0 W/m2
02:37 9.8 °C 7.2 °C 1019.9 hPa Calm   3.2 km/h 84 % 0 mm 0 W/m2
02:42 9.7 °C 7.1 °C 1019.9 hPa Calm   1.6 km/h 84 % 0 mm 0 W/m2
02:47 9.7 °C 7.3 °C 1020.2 hPa Calm   1.6 km/h 85 % 0 mm 0 W/m2
02:52 9.7 °C 7.1 °C 1020.2 hPa Calm   1.6 km/h 84 % 0 mm 0 W/m2
02:57 9.6 °C 7.2 °C 1020.2 hPa WNW 1.6 km/h 11.3 km/h 85 % 0 mm 0 W/m2
03:02 9.7 °C 7.4 °C 1020.5 hPa WNW 4.8 km/h 11.3 km/h 86 % 0 mm 0 W/m2
03:07 9.8 °C 7.6 °C 1020.5 hPa WNW 6.4 km/h 11.3 km/h 86 % 0 mm 0 W/m2
03:12 9.8 °C 7.6 °C 1020.5 hPa WNW 4.8 km/h 11.3 km/h 86 % 0 mm 0 W/m2
03:17 9.9 °C 7.7 °C 1020.5 hPa WNW 4.8 km/h 9.7 km/h 86 % 0 mm 0 W/m2
03:23 9.9 °C 7.7 °C 1020.5 hPa WNW 3.2 km/h 9.7 km/h 86 % 0 mm 0 W/m2
03:28 9.9 °C 7.7 °C 1020.5 hPa WNW 3.2 km/h 9.7 km/h 86 % 0 mm 0 W/m2
03:33 9.9 °C 7.7 °C 1020.5 hPa WNW 1.6 km/h 9.7 km/h 86 % 0 mm 0 W/m2
03:38 9.9 °C 7.7 °C 1020.5 hPa WNW 1.6 km/h 8 km/h 86 % 0 mm 0 W/m2
03:43 9.9 °C 7.7 °C 1020.5 hPa Calm   8 km/h 86 % 0 mm 0 W/m2
03:48 9.9 °C 7.7 °C 1020.5 hPa Calm   3.2 km/h 86 % 0 mm 0 W/m2
03:53 9.9 °C 7.7 °C 1020.5 hPa Calm   1.6 km/h 86 % 0 mm 0 W/m2
03:58 9.8 °C 7.6 °C 1020.5 hPa Calm   1.6 km/h 86 % 0 mm 0 W/m2
04:03 9.7 °C 7.4 °C 1020.5 hPa Calm     86 % 0 mm 0 W/m2
04:08 9.5 °C 7.3 °C 1020.5 hPa Calm     86 % 0 mm 0 W/m2
04:13 9.4 °C 7.2 °C 1020.9 hPa Calm   11.3 km/h 86 % 0 mm 0 W/m2
04:18 9.4 °C 7.5 °C 1020.9 hPa WNW 1.6 km/h 11.3 km/h 88 % 0 mm 0 W/m2
04:23 9.4 °C 7.5 °C 1020.9 hPa WNW 1.6 km/h 6.4 km/h 88 % 0 mm 0 W/m2
04:28 9.4 °C 7.5 °C 1020.9 hPa WNW 3.2 km/h 8 km/h 88 % 0 mm 0 W/m2
04:33 9.4 °C 7.5 °C 1020.9 hPa WNW 4.8 km/h 9.7 km/h 88 % 0 mm 0 W/m2
04:38 9.4 °C 7.5 °C 1020.9 hPa WNW 4.8 km/h 9.7 km/h 88 % 0 mm 0 W/m2
04:43 9.5 °C 7.8 °C 1020.9 hPa West 4.8 km/h 11.3 km/h 89 % 0 mm 0 W/m2
04:48 9.6 °C 7.9 °C 1020.9 hPa West 3.2 km/h 11.3 km/h 89 % 0 mm 0 W/m2
04:53 9.6 °C 7.7 °C 1020.9 hPa Calm   6.4 km/h 88 % 0 mm 0 W/m2
04:58 9.6 °C 7.7 °C 1021.2 hPa Calm   3.2 km/h 88 % 0 mm 0 W/m2
05:03 9.5 °C 7.6 °C 1020.9 hPa WSW 3.2 km/h 11.3 km/h 88 % 0 mm 0 W/m2
05:08 9.4 °C 7.5 °C 1020.9 hPa SW 6.4 km/h 11.3 km/h 88 % 0 mm 0 W/m2
05:13 9.3 °C 7.4 °C 1020.9 hPa WSW 6.4 km/h 11.3 km/h 88 % 0 mm 0 W/m2
05:18 9.3 °C 7.6 °C 1021.2 hPa West 4.8 km/h 9.7 km/h 89 % 0 mm 0 W/m2
05:19 9.3 °C 7.6 °C 1021.2 hPa West 4.8 km/h 9.7 km/h 89 % 0 mm 0 W/m2
05:24 9.2 °C 7.5 °C 1021.2 hPa West 4.8 km/h 8 km/h 89 % 0 mm 0 W/m2
05:29 9.2 °C 7.5 °C 1021.2 hPa WNW 4.8 km/h 8 km/h 89 % 0 mm 0 W/m2
05:34 9.2 °C 7.7 °C 1021.2 hPa WNW 6.4 km/h 11.3 km/h 90 % 0 mm 0 W/m2
05:39 9.2 °C 7.7 °C 1021.2 hPa WNW 6.4 km/h 11.3 km/h 90 % 0 mm 0 W/m2
05:44 9.2 °C 7.8 °C 1021.6 hPa WNW 6.4 km/h 12.9 km/h 91 % 0 mm 0 W/m2
05:49 9.3 °C 7.9 °C 1021.6 hPa WNW 4.8 km/h 12.9 km/h 91 % 0 mm 0 W/m2
05:54 9.3 °C 7.9 °C 1021.6 hPa WNW 3.2 km/h 11.3 km/h 91 % 0 mm 0 W/m2
05:59 9.4 °C 8 °C 1021.6 hPa WNW 4.8 km/h 9.7 km/h 91 % 0 mm 0 W/m2
06:04 9.5 °C 8.1 °C 1021.9 hPa WNW 4.8 km/h 9.7 km/h 91 % 0 mm 0 W/m2
06:09 9.6 °C 8.2 °C 1021.9 hPa WNW 3.2 km/h 9.7 km/h 91 % 0 mm 0 W/m2
06:14 9.7 °C 8.3 °C 1021.9 hPa WNW 3.2 km/h 9.7 km/h 91 % 0 mm 0 W/m2
06:19 9.8 °C 8.4 °C 1021.9 hPa WNW 3.2 km/h 9.7 km/h 91 % 0 mm 0 W/m2
06:24 9.9 °C 8.5 °C 1021.9 hPa WNW 4.8 km/h 9.7 km/h 91 % 0 mm 0 W/m2
06:29 9.9 °C 8.5 °C 1021.9 hPa West 4.8 km/h 9.7 km/h 91 % 0 mm 0 W/m2
06:34 9.9 °C 8.3 °C 1021.9 hPa West 1.6 km/h 8 km/h 90 % 0 mm 0 W/m2
06:39 9.9 °C 8.3 °C 1022.2 hPa West 1.6 km/h 6.4 km/h 90 % 0 mm 7 W/m2
06:44 9.9 °C 8.3 °C 1022.2 hPa Calm   4.8 km/h 90 % 0 mm 12 W/m2
06:49 9.9 °C 8.3 °C 1022.2 hPa West 1.6 km/h 11.3 km/h 90 % 0 mm 18 W/m2
06:54 9.9 °C 8.3 °C 1022.2 hPa West 3.2 km/h 11.3 km/h 90 % 0 mm 19 W/m2
06:59 9.9 °C 8.3 °C 1022.2 hPa WNW 1.6 km/h 6.4 km/h 90 % 0 mm 30 W/m2
07:04 9.9 °C 8.3 °C 1022.2 hPa WNW 3.2 km/h 8 km/h 90 % 0 mm 26 W/m2
07:09 9.9 °C 8.3 °C 1022.2 hPa WNW 4.8 km/h 9.7 km/h 90 % 0 mm 16 W/m2
07:14 9.8 °C 8.2 °C 1022.2 hPa West 4.8 km/h 9.7 km/h 90 % 0 mm 21 W/m2
07:19 9.8 °C 8.2 °C 1022.2 hPa West 4.8 km/h 9.7 km/h 90 % 0 mm 23 W/m2
07:24 9.7 °C 8.1 °C 1022.6 hPa West 4.8 km/h 8 km/h 90 % 0 mm 62 W/m2
07:29 9.7 °C 8.1 °C 1022.6 hPa West 3.2 km/h 8 km/h 90 % 0 mm 62 W/m2
07:34 9.8 °C 8.4 °C 1022.6 hPa West 4.8 km/h 12.9 km/h 91 % 0 mm 49 W/m2
07:40 9.9 °C 8.5 °C 1022.6 hPa West 6.4 km/h 12.9 km/h 91 % 0 mm 86 W/m2
07:45 10.1 °C 8.7 °C 1022.9 hPa West 4.8 km/h 12.9 km/h 91 % 0 mm 69 W/m2
07:49 10.2 °C 8.8 °C 1022.6 hPa West 4.8 km/h 11.3 km/h 91 % 0 mm 63 W/m2
07:55 10.4 °C 9 °C 1022.9 hPa West 8 km/h 20.9 km/h 91 % 0 mm 67 W/m2
08:00 10.5 °C 9.1 °C 1022.9 hPa West 11.3 km/h 22.5 km/h 91 % 0 mm 60 W/m2
08:05 10.7 °C 9.3 °C 1022.9 hPa WNW 11.3 km/h 25.7 km/h 91 % 0 mm 105 W/m2
08:10 10.8 °C 9.2 °C 1022.9 hPa West 9.7 km/h 25.7 km/h 90 % 0 mm 211 W/m2
08:15 11.1 °C 9.5 °C 1022.9 hPa West 8 km/h 17.7 km/h 90 % 0 mm 237 W/m2
08:20 11.4 °C 9.7 °C 1023.2 hPa West 6.4 km/h 11.3 km/h 89 % 0 mm 102 W/m2
08:25 11.6 °C 9.7 °C 1023.2 hPa WNW 4.8 km/h 11.3 km/h 88 % 0 mm 167 W/m2
08:30 11.8 °C 9.9 °C 1023.2 hPa NW 4.8 km/h 11.3 km/h 88 % 0 mm 237 W/m2
08:35 11.9 °C 9.8 °C 1023.2 hPa NW 6.4 km/h 14.5 km/h 87 % 0 mm 83 W/m2
08:40 11.9 °C 9.6 °C 1023.6 hPa WNW 8 km/h 17.7 km/h 86 % 0 mm 113 W/m2
08:45 11.9 °C 9.6 °C 1023.6 hPa WNW 9.7 km/h 17.7 km/h 86 % 0 mm 121 W/m2
08:50 11.9 °C 9.6 °C 1023.6 hPa NW 8 km/h 17.7 km/h 86 % 0 mm 69 W/m2
08:55 11.9 °C 9.6 °C 1023.6 hPa NW 6.4 km/h 14.5 km/h 86 % 0 mm 113 W/m2
09:00 11.9 °C 9.6 °C 1023.6 hPa NW 8 km/h 17.7 km/h 86 % 0 mm 149 W/m2
09:05 11.9 °C 9.6 °C 1023.9 hPa NW 8 km/h 17.7 km/h 86 % 0 mm 153 W/m2
09:10 11.9 °C 9.6 °C 1023.9 hPa NW 8 km/h 19.3 km/h 86 % 0 mm 125 W/m2
09:15 12 °C 9.7 °C 1023.9 hPa NW 8 km/h 19.3 km/h 86 % 0 mm 116 W/m2
09:20 12 °C 9.7 °C 1023.9 hPa NW 4.8 km/h 14.5 km/h 86 % 0 mm 200 W/m2
09:25 12.1 °C 9.8 °C 1024.3 hPa NNW 1.6 km/h 12.9 km/h 86 % 0 mm 123 W/m2
09:30 12.2 °C 9.9 °C 1024.3 hPa NNW 4.8 km/h 16.1 km/h 86 % 0 mm 109 W/m2
09:35 12.2 °C 9.9 °C 1024.3 hPa NW 6.4 km/h 16.1 km/h 86 % 0 mm 100 W/m2
09:40 12.3 °C 10 °C 1024.6 hPa NW 4.8 km/h 12.9 km/h 86 % 0 mm 95 W/m2
09:45 12.3 °C 9.8 °C 1024.6 hPa NW 4.8 km/h 16.1 km/h 85 % 0 mm 62 W/m2
09:50 12.3 °C 9.8 °C 1024.6 hPa NW 4.8 km/h 11.3 km/h 85 % 0 mm 88 W/m2
09:55 12.2 °C 9.8 °C 1024.6 hPa NW 6.4 km/h 12.9 km/h 85 % 0 mm 63 W/m2
10:00 12.2 °C 9.8 °C 1024.6 hPa NW 6.4 km/h 12.9 km/h 85 % 0 mm 54 W/m2
10:06 12.2 °C 9.8 °C 1024.9 hPa NW 6.4 km/h 12.9 km/h 85 % 0 mm 58 W/m2
10:11 12.2 °C 9.8 °C 1024.9 hPa NW 6.4 km/h 14.5 km/h 85 % 0 mm 88 W/m2
10:16 12.2 °C 9.8 °C 1024.9 hPa NW 8 km/h 14.5 km/h 85 % 0 mm 56 W/m2
10:21 12.2 °C 9.8 °C 1024.9 hPa NW 8 km/h 17.7 km/h 85 % 0 mm 67 W/m2
10:26 12.1 °C 9.7 °C 1024.9 hPa NW 8 km/h 17.7 km/h 85 % 0 mm 60 W/m2
10:31 12.1 °C 9.8 °C 1025.3 hPa NW 8 km/h 16.1 km/h 86 % 0 mm 47 W/m2
10:36 12.1 °C 9.7 °C 1025.3 hPa NNW 6.4 km/h 12.9 km/h 85 % 0 mm 47 W/m2
10:41 12 °C 9.6 °C 1025.3 hPa NNW 4.8 km/h 12.9 km/h 85 % 0 mm 54 W/m2
10:46 11.9 °C 9.6 °C 1025.3 hPa NNW 4.8 km/h 12.9 km/h 86 % 0 mm 58 W/m2
10:51 11.9 °C 9.6 °C 1025.3 hPa NNW 4.8 km/h 12.9 km/h 86 % 0 mm 58 W/m2
10:56 11.9 °C 9.6 °C 1025.6 hPa NNW 4.8 km/h 14.5 km/h 86 % 0 mm 60 W/m2
11:01 11.9 °C 9.6 °C 1025.6 hPa NW 8 km/h 14.5 km/h 86 % 0 mm 62 W/m2
11:06 11.9 °C 9.6 °C 1025.6 hPa NW 8 km/h 14.5 km/h 86 % 0 mm 63 W/m2
11:11 11.9 °C 9.6 °C 1025.6 hPa NW 8 km/h 16.1 km/h 86 % 0 mm 69 W/m2
11:16 11.9 °C 9.6 °C 1025.6 hPa WNW 9.7 km/h 16.1 km/h 86 % 0 mm 67 W/m2
11:21 11.9 °C 9.6 °C 1025.6 hPa NW 9.7 km/h 20.9 km/h 86 % 0 mm 69 W/m2
11:26 11.8 °C 9.6 °C 1026 hPa NW 9.7 km/h 20.9 km/h 86 % 0 mm 67 W/m2
11:31 11.8 °C 9.6 °C 1026 hPa NW 9.7 km/h 17.7 km/h 86 % 0 mm 63 W/m2
11:36 11.7 °C 9.6 °C 1026 hPa NW 9.7 km/h 19.3 km/h 87 % 0 mm 76 W/m2
11:41 11.7 °C 9.6 °C 1026 hPa NW 9.7 km/h 19.3 km/h 87 % 0 mm 74 W/m2
11:46 11.6 °C 9.5 °C 1026 hPa WNW 9.7 km/h 19.3 km/h 87 % 0 mm 83 W/m2
11:51 11.7 °C 9.6 °C 1026 hPa WNW 8 km/h 16.1 km/h 87 % 0 mm 72 W/m2
11:56 11.7 °C 9.6 °C 1026 hPa WNW 8 km/h 16.1 km/h 87 % 0 mm 65 W/m2
12:01 11.7 °C 9.6 °C 1026.3 hPa WNW 9.7 km/h 20.9 km/h 87 % 0 mm 49 W/m2
12:06 11.6 °C 9.5 °C 1026.3 hPa WNW 11.3 km/h 20.9 km/h 87 % 0 mm 40 W/m2
12:11 11.5 °C 9.4 °C 1026.3 hPa WNW 12.9 km/h 22.5 km/h 87 % 0 mm 37 W/m2
12:16 11.3 °C 9.2 °C 1026.6 hPa WNW 14.5 km/h 22.5 km/h 87 % 0 mm 40 W/m2
12:21 11.2 °C 9.3 °C 1026.6 hPa WNW 14.5 km/h 25.7 km/h 88 % 0 mm 47 W/m2
12:26 11.1 °C 9.2 °C 1026.6 hPa WNW 14.5 km/h 25.7 km/h 88 % 0 mm 54 W/m2
12:31 10.9 °C 9 °C 1026.6 hPa WNW 14.5 km/h 25.7 km/h 88 % 0 mm 58 W/m2
12:32 10.9 °C 9 °C 1026.6 hPa WNW 14.5 km/h 25.7 km/h 88 % 0 mm 58 W/m2
12:37 10.8 °C 8.9 °C 1026.6 hPa WNW 12.9 km/h 24.1 km/h 88 % 0 mm 72 W/m2
12:42 10.8 °C 8.9 °C 1026.6 hPa WNW 11.3 km/h 24.1 km/h 88 % 0 mm 74 W/m2
12:47 10.9 °C 9 °C 1027 hPa WNW 11.3 km/h 20.9 km/h 88 % 0 mm 74 W/m2
12:52 10.9 °C 9 °C 1027 hPa WNW 11.3 km/h 20.9 km/h 88 % 0 mm 77 W/m2
12:57 10.9 °C 9 °C 1027 hPa WNW 12.9 km/h 22.5 km/h 88 % 0 mm 77 W/m2
13:02 10.9 °C 9 °C 1027 hPa WNW 11.3 km/h 22.5 km/h 88 % 0 mm 76 W/m2
13:07 11 °C 9.1 °C 1027 hPa WNW 9.7 km/h 19.3 km/h 88 % 0 mm 67 W/m2
13:12 11 °C 8.9 °C 1027 hPa WNW 9.7 km/h 17.7 km/h 87 % 0 mm 67 W/m2
13:14 11 °C 8.9 °C 1027 hPa WNW 9.7 km/h 17.7 km/h 87 % 0 mm 65 W/m2
13:19 11.1 °C 9 °C 1027 hPa WNW 11.3 km/h 17.7 km/h 87 % 0 mm 76 W/m2
13:24 11 °C 8.9 °C 1027 hPa WNW 11.3 km/h 22.5 km/h 87 % 0 mm 79 W/m2
13:29 11 °C 9.1 °C 1027 hPa WNW 11.3 km/h 22.5 km/h 88 % 0 mm 88 W/m2
13:34 11 °C 9.1 °C 1027 hPa WNW 8 km/h 17.7 km/h 88 % 0 mm 116 W/m2
13:39 11 °C 9.1 °C 1027 hPa WNW 8 km/h 12.9 km/h 88 % 0 mm 116 W/m2
13:44 11.1 °C 9 °C 1027 hPa WNW 9.7 km/h 16.1 km/h 87 % 0 mm 137 W/m2
13:49 11.1 °C 9 °C 1027.3 hPa WNW 9.7 km/h 16.1 km/h 87 % 0 mm 207 W/m2
13:54 11.3 °C 9.1 °C 1027.3 hPa WNW 9.7 km/h 16.1 km/h 86 % 0 mm 267 W/m2
13:59 11.6 °C 9.2 °C 1027.3 hPa WNW 9.7 km/h 16.1 km/h 85 % 0 mm 137 W/m2
14:04 11.7 °C 8.7 °C 1027.3 hPa WNW 9.7 km/h 17.7 km/h 82 % 0 mm 130 W/m2
14:09 11.8 °C 8.7 °C 1027.3 hPa NW 11.3 km/h 19.3 km/h 81 % 0 mm 151 W/m2
14:14 11.8 °C 8.7 °C 1027.3 hPa NW 11.3 km/h 19.3 km/h 81 % 0 mm 130 W/m2
14:19 11.9 °C 8.9 °C 1027.3 hPa NW 9.7 km/h 17.7 km/h 82 % 0 mm 139 W/m2
14:24 11.9 °C 8.7 °C 1027.3 hPa WNW 9.7 km/h 16.1 km/h 81 % 0 mm 172 W/m2
14:29 11.9 °C 8.7 °C 1027.3 hPa WNW 9.7 km/h 16.1 km/h 81 % 0 mm 206 W/m2
14:34 11.9 °C 8.7 °C 1027.3 hPa WNW 8 km/h 14.5 km/h 81 % 0 mm 260 W/m2
14:39 12.1 °C 8.8 °C 1027.3 hPa WNW 8 km/h 19.3 km/h 80 % 0 mm 264 W/m2
14:44 12.3 °C 8.6 °C 1027.3 hPa WNW 9.7 km/h 19.3 km/h 78 % 0 mm 176 W/m2
14:49 12.4 °C 8.5 °C 1027.3 hPa NW 9.7 km/h 17.7 km/h 77 % 0 mm 207 W/m2
14:54 12.4 °C 8.1 °C 1027.3 hPa NW 11.3 km/h 20.9 km/h 75 % 0 mm 274 W/m2
14:59 12.7 °C 8.6 °C 1027.3 hPa WNW 9.7 km/h 20.9 km/h 76 % 0 mm 330 W/m2
15:04 12.9 °C 8.2 °C 1027.3 hPa WNW 9.7 km/h 19.3 km/h 73 % 0 mm 323 W/m2
15:10 13.1 °C 7.9 °C 1027.3 hPa WNW 9.7 km/h 19.3 km/h 71 % 0 mm 301 W/m2
15:15 13.3 °C 7.7 °C 1027 hPa WNW 11.3 km/h 19.3 km/h 69 % 0 mm 304 W/m2
15:20 13.4 °C 7.2 °C 1027 hPa WNW 12.9 km/h 22.5 km/h 66 % 0 mm 454 W/m2
15:25 13.7 °C 7.4 °C 1027 hPa WNW 12.9 km/h 24.1 km/h 66 % 0 mm 798 W/m2
15:30 13.9 °C 7.2 °C 1027 hPa WNW 14.5 km/h 24.1 km/h 64 % 0 mm 301 W/m2
15:35 14.1 °C 7.2 °C 1027 hPa WNW 12.9 km/h 24.1 km/h 63 % 0 mm 538 W/m2
15:40 14.3 °C 7.1 °C 1027 hPa NW 12.9 km/h 24.1 km/h 62 % 0 mm 649 W/m2
15:45 14.6 °C 7.4 °C 1027 hPa NW 12.9 km/h 24.1 km/h 62 % 0 mm 601 W/m2
15:50 14.8 °C 6.8 °C 1027 hPa WNW 12.9 km/h 24.1 km/h 59 % 0 mm 564 W/m2
15:55 14.9 °C 6.9 °C 1027 hPa WNW 12.9 km/h 24.1 km/h 59 % 0 mm 589 W/m2
16:00 14.9 °C 6.7 °C 1027 hPa WNW 12.9 km/h 22.5 km/h 58 % 0 mm 568 W/m2
16:05 14.8 °C 6.8 °C 1027 hPa West 14.5 km/h 25.7 km/h 59 % 0 mm 541 W/m2
16:10 14.8 °C 6.6 °C 1027 hPa WNW 16.1 km/h 29 km/h 58 % 0 mm 534 W/m2
16:15 14.8 °C 6.6 °C 1027 hPa WNW 14.5 km/h 29 km/h 58 % 0 mm 534 W/m2
16:20 14.8 °C 6.6 °C 1027 hPa WNW 14.5 km/h 25.7 km/h 58 % 0 mm 508 W/m2
16:25 14.9 °C 6.4 °C 1027 hPa WNW 11.3 km/h 25.7 km/h 57 % 0 mm 482 W/m2
16:30 14.9 °C 6.7 °C 1027 hPa WNW 12.9 km/h 24.1 km/h 58 % 0 mm 471 W/m2
16:35 15 °C 6.3 °C 1027.3 hPa WNW 14.5 km/h 30.6 km/h 56 % 0 mm 446 W/m2
16:40 14.9 °C 6.2 °C 1027.3 hPa NW 12.9 km/h 30.6 km/h 56 % 0 mm 408 W/m2
16:45 14.9 °C 6.2 °C 1027.3 hPa WNW 9.7 km/h 22.5 km/h 56 % 0 mm 411 W/m2
16:50 14.9 °C 6.2 °C 1027.3 hPa WNW 8 km/h 16.1 km/h 56 % 0 mm 454 W/m2
16:51 14.8 °C 6.3 °C 1027.3 hPa WNW 9.7 km/h 22.5 km/h 57 % 0 mm 454 W/m2
16:55 14.6 °C 6.2 °C 1027.3 hPa WNW 12.9 km/h 33.8 km/h 57 % 0 mm 120 W/m2
17:01 14.2 °C 5.8 °C 1027.3 hPa WNW 14.5 km/h 33.8 km/h 57 % 0 mm 98 W/m2
17:06 14 °C 6.1 °C 1027.3 hPa NW 9.7 km/h 22.5 km/h 59 % 0 mm 88 W/m2
17:11 13.8 °C 6.2 °C 1027.3 hPa NW 8 km/h 14.5 km/h 60 % 0 mm 102 W/m2
17:16 13.6 °C 6.2 °C 1027.3 hPa NW 9.7 km/h 17.7 km/h 61 % 0 mm 118 W/m2
17:21 13.6 °C 6.2 °C 1027.3 hPa WNW 11.3 km/h 19.3 km/h 61 % 0 mm 100 W/m2
17:26 13.5 °C 6.3 °C 1027.7 hPa WNW 9.7 km/h 19.3 km/h 62 % 0 mm 111 W/m2
17:31 13.7 °C 6.6 °C 1027.7 hPa WNW 12.9 km/h 22.5 km/h 62 % 0 mm 285 W/m2
17:36 13.8 °C 6.7 °C 1027.7 hPa WNW 14.5 km/h 24.1 km/h 62 % 0 mm 281 W/m2
17:41 13.7 °C 6.6 °C 1027.7 hPa WNW 16.1 km/h 25.7 km/h 62 % 0 mm 253 W/m2
17:46 13.7 °C 6.8 °C 1027.7 hPa WNW 17.7 km/h 25.7 km/h 63 % 0 mm 246 W/m2
17:51 13.6 °C 6.7 °C 1027.7 hPa WNW 16.1 km/h 25.7 km/h 63 % 0 mm 211 W/m2
17:52 13.6 °C 6.9 °C 1027.7 hPa WNW 16.1 km/h 25.7 km/h 64 % 0 mm 202 W/m2
17:57 13.4 °C 6.7 °C 1027.7 hPa WNW 16.1 km/h 29 km/h 64 % 0 mm 176 W/m2
18:02 13.2 °C 6.6 °C 1028 hPa WNW 16.1 km/h 29 km/h 64 % 0 mm 172 W/m2
18:07 13.1 °C 6.9 °C 1028 hPa WNW 14.5 km/h 29 km/h 66 % 0 mm 163 W/m2
18:12 12.9 °C 6.7 °C 1028 hPa WNW 14.5 km/h 29 km/h 66 % 0 mm 149 W/m2
18:17 12.7 °C 6.5 °C 1028 hPa WNW 17.7 km/h 29 km/h 66 % 0 mm 153 W/m2
18:22 12.6 °C 6.6 °C 1028 hPa WNW 17.7 km/h 32.2 km/h 67 % 0 mm 134 W/m2
18:27 12.4 °C 6.4 °C 1028 hPa WNW 14.5 km/h 32.2 km/h 67 % 0 mm 116 W/m2
18:32 12.3 °C 6.3 °C 1028 hPa WNW 14.5 km/h 30.6 km/h 67 % 0 mm 88 W/m2
18:37 12.1 °C 6.4 °C 1028 hPa WNW 17.7 km/h 30.6 km/h 68 % 0 mm 97 W/m2
18:42 11.9 °C 6.2 °C 1028 hPa WNW 16.1 km/h 29 km/h 68 % 0 mm 77 W/m2
18:47 11.8 °C 6.3 °C 1028.3 hPa WNW 14.5 km/h 25.7 km/h 69 % 0 mm 65 W/m2
18:52 11.6 °C 6.3 °C 1028.3 hPa WNW 12.9 km/h 22.5 km/h 70 % 0 mm 60 W/m2
18:57 11.4 °C 6.1 °C 1028.3 hPa WNW 12.9 km/h 25.7 km/h 70 % 0 mm 67 W/m2
19:02 11.3 °C 6 °C 1028.3 hPa WNW 12.9 km/h 29 km/h 70 % 0 mm 60 W/m2
19:07 11.2 °C 5.9 °C 1028.3 hPa WNW 14.5 km/h 29 km/h 70 % 0 mm 54 W/m2
19:12 11.1 °C 5.8 °C 1028.3 hPa WNW 14.5 km/h 22.5 km/h 70 % 0 mm 33 W/m2
19:17 10.9 °C 5.7 °C 1028.3 hPa WNW 12.9 km/h 22.5 km/h 70 % 0 mm 28 W/m2
19:22 10.8 °C 5.6 °C 1028.7 hPa WNW 12.9 km/h 20.9 km/h 70 % 0 mm 23 W/m2
19:25 10.7 °C 5.7 °C 1028.7 hPa WNW 11.3 km/h 19.3 km/h 71 % 0 mm 23 W/m2
19:30 10.6 °C 5.8 °C 1028.7 hPa WNW 9.7 km/h 17.7 km/h 72 % 0 mm 19 W/m2
19:35 10.4 °C 5.6 °C 1028.7 hPa WNW 9.7 km/h 20.9 km/h 72 % 0 mm 12 W/m2
19:40 10.3 °C 5.4 °C 1028.7 hPa WNW 11.3 km/h 22.5 km/h 72 % 0 mm 9 W/m2
19:45 10.2 °C 5.6 °C 1028.7 hPa WNW 11.3 km/h 22.5 km/h 73 % 0 mm 5 W/m2
19:50 10 °C 5.4 °C 1028.7 hPa WNW 9.7 km/h 19.3 km/h 73 % 0 mm 0 W/m2
19:55 9.9 °C 5.3 °C 1029 hPa WNW 11.3 km/h 19.3 km/h 73 % 0 mm 0 W/m2
20:00 9.8 °C 5.4 °C 1029 hPa WNW 9.7 km/h 20.9 km/h 74 % 0 mm 0 W/m2
20:01 9.8 °C 5.4 °C 1029 hPa WNW 11.3 km/h 24.1 km/h 74 % 0 mm 0 W/m2
20:06 9.7 °C 5.3 °C 1029 hPa WNW 12.9 km/h 24.1 km/h 74 % 0 mm 0 W/m2
20:11 9.6 °C 5.2 °C 1029.3 hPa WNW 12.9 km/h 24.1 km/h 74 % 0 mm 0 W/m2
20:16 9.5 °C 5.1 °C 1029.3 hPa WNW 14.5 km/h 29 km/h 74 % 0 mm 0 W/m2
20:21 9.4 °C 5 °C 1029.3 hPa WNW 16.1 km/h 29 km/h 74 % 0 mm 0 W/m2
20:26 9.3 °C 4.9 °C 1029.3 hPa WNW 14.5 km/h 24.1 km/h 74 % 0 mm 0 W/m2
20:32 9.3 °C 4.9 °C 1029.3 hPa WNW 14.5 km/h 29 km/h 74 % 0 mm 0 W/m2
20:37 9.2 °C 4.8 °C 1029.3 hPa WNW 14.5 km/h 29 km/h 74 % 0 mm 0 W/m2
20:42 9.1 °C 4.7 °C 1029.3 hPa WNW 12.9 km/h 22.5 km/h 74 % 0 mm 0 W/m2
20:47 9.1 °C 4.9 °C 1029.7 hPa WNW 11.3 km/h 22.5 km/h 75 % 0 mm 0 W/m2
20:52 8.9 °C 4.7 °C 1029.3 hPa WNW 9.7 km/h 17.7 km/h 75 % 0 mm 0 W/m2
20:57 8.8 °C 4.6 °C 1029.7 hPa WNW 8 km/h 17.7 km/h 75 % 0 mm 0 W/m2
21:02 8.8 °C 4.6 °C 1029.7 hPa West 8 km/h 17.7 km/h 75 % 0 mm 0 W/m2
21:07 8.7 °C 4.7 °C 1029.7 hPa WNW 6.4 km/h 17.7 km/h 76 % 0 mm 0 W/m2
21:12 8.7 °C 4.7 °C 1029.7 hPa WNW 6.4 km/h 16.1 km/h 76 % 0 mm 0 W/m2
21:17 8.6 °C 4.6 °C 1029.7 hPa WNW 6.4 km/h 12.9 km/h 76 % 0 mm 0 W/m2
21:22 8.5 °C 4.7 °C 1029.7 hPa WNW 8 km/h 16.1 km/h 77 % 0 mm 0 W/m2
21:27 8.4 °C 4.6 °C 1029.7 hPa WNW 9.7 km/h 16.1 km/h 77 % 0 mm 0 W/m2
21:32 8.4 °C 4.6 °C 1029.7 hPa WNW 9.7 km/h 17.7 km/h 77 % 0 mm 0 W/m2
21:37 8.3 °C 4.5 °C 1029.7 hPa WNW 8 km/h 17.7 km/h 77 % 0 mm 0 W/m2
21:42 8.2 °C 4.4 °C 1030 hPa West 4.8 km/h 12.9 km/h 77 % 0 mm 0 W/m2
21:47 8.1 °C 4.5 °C 1030 hPa WNW 4.8 km/h 12.9 km/h 78 % 0 mm 0 W/m2
21:52 7.9 °C 4.3 °C 1030 hPa WNW 6.4 km/h 14.5 km/h 78 % 0 mm 0 W/m2
21:57 7.9 °C 4.3 °C 1030 hPa WNW 8 km/h 16.1 km/h 78 % 0 mm 0 W/m2
22:02 7.8 °C 4.2 °C 1030 hPa WNW 8 km/h 16.1 km/h 78 % 0 mm 0 W/m2
22:07 7.8 °C 4.2 °C 1030 hPa WNW 6.4 km/h 14.5 km/h 78 % 0 mm 0 W/m2
22:12 7.7 °C 4.1 °C 1030 hPa WNW 3.2 km/h 14.5 km/h 78 % 0 mm 0 W/m2
22:17 7.7 °C 4.1 °C 1030 hPa West 3.2 km/h 9.7 km/h 78 % 0 mm 0 W/m2
22:22 7.7 °C 4.1 °C 1030.4 hPa West 1.6 km/h 9.7 km/h 78 % 0 mm 0 W/m2
22:27 7.6 °C 4 °C 1030.4 hPa Calm   6.4 km/h 78 % 0 mm 0 W/m2
22:32 7.4 °C 3.8 °C 1030.4 hPa Calm   1.6 km/h 78 % 0 mm 0 W/m2
22:37 7.3 °C 3.9 °C 1030.4 hPa Calm   4.8 km/h 79 % 0 mm 0 W/m2
22:42 7.1 °C 3.7 °C 1030.4 hPa West 1.6 km/h 6.4 km/h 79 % 0 mm 0 W/m2
22:47 7.1 °C 3.9 °C 1030.4 hPa WNW 1.6 km/h 6.4 km/h 80 % 0 mm 0 W/m2
22:52 7 °C 3.8 °C 1030.4 hPa WNW 3.2 km/h 14.5 km/h 80 % 0 mm 0 W/m2
22:57 7 °C 3.8 °C 1030.4 hPa WNW 6.4 km/h 16.1 km/h 80 % 0 mm 0 W/m2
23:02 7 °C 3.8 °C 1030.4 hPa WNW 9.7 km/h 20.9 km/h 80 % 0 mm 0 W/m2
23:07 7 °C 3.8 °C 1030.4 hPa WNW 11.3 km/h 20.9 km/h 80 % 0 mm 0 W/m2
23:12 7 °C 3.8 °C 1030.4 hPa WNW 8 km/h 16.1 km/h 80 % 0 mm 0 W/m2
23:17 6.9 °C 3.7 °C 1030.4 hPa WNW 6.4 km/h 14.5 km/h 80 % 0 mm 0 W/m2
23:22 6.9 °C 3.7 °C 1030.4 hPa WNW 4.8 km/h 14.5 km/h 80 % 0 mm 0 W/m2
23:27 6.8 °C 3.6 °C 1030.4 hPa WNW 3.2 km/h 12.9 km/h 80 % 0 mm 0 W/m2
23:32 6.8 °C 3.6 °C 1030.4 hPa WNW 6.4 km/h 20.9 km/h 80 % 0 mm 0 W/m2
23:37 6.8 °C 3.6 °C 1030.4 hPa WNW 8 km/h 20.9 km/h 80 % 0 mm 0 W/m2
23:43 6.8 °C 3.6 °C 1030.4 hPa WNW 9.7 km/h 17.7 km/h 80 % 0 mm 0 W/m2
23:48 6.8 °C 3.6 °C 1030 hPa WNW 9.7 km/h 19.3 km/h 80 % 0 mm 0 W/m2
23:53 6.8 °C 3.6 °C 1030 hPa WNW 9.7 km/h 19.3 km/h 80 % 0 mm 0 W/m2
23:58 6.8 °C 3.6 °C 1030 hPa WNW 6.4 km/h 17.7 km/h 80 % 0 mm 0 W/m2
Delerius-Weather
Compliments of Weather Underground - 2.25 mb

Data updates at regular intervals.